Terminal Aerodrome Forecast
Issued by NWS Caribou, ME

Home | Current Version | Previous Version | Text Only | Print | Product List | Glossary On
Versions: 1 2 3 4 5 6 7 8 9 10 11 12 13 14
000
FTUS41 KCAR 191100
TAFCAR
TAF
KCAR 191124Z 1912/2012 22004KT P6SM -SHSN SCT015 OVC035
     FM191400 23006KT P6SM OVC025
     FM191600 30010G20KT P6SM OVC025
     FM191900 33012G22KT P6SM OVC035
     FM200200 32008KT P6SM BKN050=

USA.gov is the U.S. government's official web portal to all federal, state and local government web resources and services.